Time;durP1;ratioP1;P1;durP2;ratioP2;P2;SDS_P1;SDS_P2;PMS_P1;PMS_P2;Temp;Humidity;BMP_temperature;BMP_pressure;BME280_temperature;BME280_humidity;BME280_pressure;Samples;Min_cycle;Max_cycle;Signal;HPM_P1;HPM_P2
2023/01/16 00:00:22;;;;;;;15.40;14.00;;;4.90;88.60;;;;;;4996237;28;20178;-89
2023/01/16 00:02:48;;;;;;;15.13;14.03;;;5.00;88.50;;;;;;4995969;28;20200;-90
2023/01/16 00:05:13;;;;;;;15.80;14.37;;;5.00;88.60;;;;;;4994841;28;20193;-90
2023/01/16 00:07:39;;;;;;;16.43;14.80;;;4.90;88.90;;;;;;4995991;28;20232;-90
2023/01/16 00:10:05;;;;;;;16.27;14.83;;;4.90;89.00;;;;;;4994730;28;20191;-90
2023/01/16 00:12:31;;;;;;;17.67;15.87;;;5.00;88.90;;;;;;4995855;28;20249;-90
2023/01/16 00:14:56;;;;;;;17.33;15.33;;;5.00;88.80;;;;;;4996069;28;20722;-89
2023/01/16 00:17:22;;;;;;;19.37;15.63;;;5.10;88.80;;;;;;4994630;28;20280;-90
2023/01/16 00:19:47;;;;;;;15.17;13.97;;;5.10;88.90;;;;;;4995702;28;20272;-90
2023/01/16 00:22:13;;;;;;;16.73;15.23;;;5.10;88.90;;;;;;4996298;28;20181;-90
2023/01/16 00:24:39;;;;;;;17.73;16.13;;;5.10;89.00;;;;;;4995584;28;20217;-90
2023/01/16 00:27:04;;;;;;;18.90;17.17;;;5.10;89.20;;;;;;4995984;28;20178;-90
2023/01/16 00:29:30;;;;;;;16.37;14.60;;;5.10;89.00;;;;;;4995607;28;20232;-90
2023/01/16 00:31:55;;;;;;;17.73;15.93;;;5.10;89.00;;;;;;4995598;28;20177;-90
2023/01/16 00:34:21;;;;;;;14.73;13.73;;;5.10;89.20;;;;;;4995507;28;20270;-90
2023/01/16 00:36:46;;;;;;;16.97;15.30;;;5.10;89.20;;;;;;4995573;28;20173;-90
2023/01/16 00:39:12;;;;;;;17.33;15.60;;;5.10;89.20;;;;;;4994189;28;20192;-90
2023/01/16 00:41:38;;;;;;;17.33;15.50;;;5.10;89.40;;;;;;4994491;28;20193;-90
2023/01/16 00:44:03;;;;;;;16.33;15.03;;;5.10;89.50;;;;;;4995357;28;20221;-90
2023/01/16 00:46:29;;;;;;;14.97;13.87;;;5.10;89.50;;;;;;4994150;28;20196;-89
2023/01/16 00:48:56;;;;;;;17.90;16.00;;;5.00;89.50;;;;;;4995605;28;20170;-90
2023/01/16 00:51:22;;;;;;;14.97;13.63;;;5.00;89.60;;;;;;4995156;28;20304;-89
2023/01/16 00:53:47;;;;;;;18.37;16.80;;;5.00;89.70;;;;;;4995110;28;20291;-89
2023/01/16 00:56:13;;;;;;;18.50;15.97;;;5.00;89.70;;;;;;4995117;28;20244;-89
2023/01/16 00:58:38;;;;;;;17.30;15.50;;;5.10;89.60;;;;;;4995005;28;20205;-89
2023/01/16 01:01:04;;;;;;;15.47;13.97;;;5.10;89.40;;;;;;4994574;28;20246;-90
2023/01/16 01:03:30;;;;;;;13.63;12.50;;;5.00;89.40;;;;;;4994233;28;20633;-87
2023/01/16 01:05:56;;;;;;;15.80;14.50;;;5.10;88.80;;;;;;4995692;28;20204;-89
2023/01/16 01:08:22;;;;;;;16.27;14.60;;;5.10;88.70;;;;;;4995134;28;20197;-87
2023/01/16 01:10:47;;;;;;;16.40;15.00;;;5.10;88.80;;;;;;4994883;28;20185;-89
2023/01/16 01:13:13;;;;;;;17.63;15.43;;;5.10;88.90;;;;;;4994686;28;20683;-90
2023/01/16 01:15:39;;;;;;;14.27;12.93;;;5.10;88.90;;;;;;4993583;28;20200;-89
2023/01/16 01:18:05;;;;;;;19.40;15.63;;;5.10;88.70;;;;;;4994870;28;20180;-89
2023/01/16 01:20:30;;;;;;;13.00;12.13;;;5.10;88.80;;;;;;4994759;28;20170;-89
2023/01/16 01:22:56;;;;;;;16.03;13.63;;;5.10;88.70;;;;;;4993442;28;20220;-89
2023/01/16 01:25:23;;;;;;;14.13;12.73;;;5.10;88.60;;;;;;4993437;28;20238;-89
2023/01/16 01:27:48;;;;;;;13.20;11.93;;;5.10;88.40;;;;;;4993706;28;20272;-89
2023/01/16 01:30:14;;;;;;;13.60;12.07;;;5.10;88.10;;;;;;4993325;28;20220;-89
2023/01/16 01:32:39;;;;;;;13.80;11.60;;;5.10;88.20;;;;;;4993237;28;20607;-89
2023/01/16 01:35:06;;;;;;;13.97;12.90;;;5.10;87.90;;;;;;4993210;28;20184;-88
2023/01/16 01:37:33;;;;;;;13.53;12.23;;;5.10;88.20;;;;;;4993202;28;20774;-89
2023/01/16 01:39:59;;;;;;;13.57;12.27;;;5.10;87.70;;;;;;4994027;28;20232;-90
2023/01/16 01:42:43;;;;;;;19.43;15.23;;;5.10;87.50;;;;;;4993101;28;20184;-89
2023/01/16 01:45:25;;;;;;;13.30;12.10;;;5.10;87.20;;;;;;4993023;28;20211;-89
2023/01/16 01:48:19;;;;;;;16.30;12.33;;;5.10;86.60;;;;;;4994606;28;20200;-90
2023/01/16 01:50:53;;;;;;;14.17;12.77;;;5.00;86.80;;;;;;4994228;28;20188;-89
2023/01/16 01:53:24;;;;;;;19.63;12.30;;;5.00;87.00;;;;;;4992900;28;20196;-89
2023/01/16 01:55:51;;;;;;;14.77;12.43;;;5.00;87.00;;;;;;4994205;28;20208;-89
2023/01/16 01:58:22;;;;;;;19.77;12.83;;;4.90;87.10;;;;;;4994012;28;20176;-88
2023/01/16 02:00:54;;;;;;;13.87;11.70;;;4.90;87.10;;;;;;4992962;28;20184;-89
2023/01/16 02:03:34;;;;;;;12.40;11.47;;;4.80;87.30;;;;;;4994055;28;20200;-89
2023/01/16 02:06:05;;;;;;;12.80;11.67;;;4.80;87.40;;;;;;4993956;28;20190;-89
2023/01/16 02:08:32;;;;;;;13.27;11.93;;;4.80;87.50;;;;;;4992726;28;20182;-89
2023/01/16 02:11:25;;;;;;;13.57;12.07;;;4.80;87.80;;;;;;4994368;28;20688;-89
2023/01/16 02:13:57;;;;;;;12.93;11.57;;;4.70;88.20;;;;;;4993555;28;20193;-89
2023/01/16 02:19:37;;;;;;;13.90;12.50;;;4.50;88.50;;;;;;4994473;28;20224;-89
2023/01/16 02:22:36;;;;;;;13.13;11.90;;;4.50;88.60;;;;;;4993554;28;20170;-89
2023/01/16 02:25:14;;;;;;;17.20;13.13;;;4.40;88.80;;;;;;4992533;28;20217;-89
2023/01/16 02:28:10;;;;;;;14.57;13.30;;;4.40;88.90;;;;;;4993670;28;20255;-89
2023/01/16 02:31:02;;;;;;;17.23;13.43;;;4.30;89.00;;;;;;4993680;28;20666;-89
2023/01/16 02:33:51;;;;;;;18.53;13.27;;;4.30;89.20;;;;;;4992435;28;20198;-89
2023/01/16 02:36:25;;;;;;;14.40;13.30;;;4.30;89.40;;;;;;4993735;28;20173;-89
2023/01/16 02:39:05;;;;;;;15.40;14.07;;;4.30;89.50;;;;;;4994032;28;20158;-89
2023/01/16 02:41:50;;;;;;;15.57;14.07;;;4.20;89.60;;;;;;4992581;28;20261;-89
2023/01/16 02:44:24;;;;;;;15.17;13.87;;;4.20;89.70;;;;;;4993517;28;20568;-89
2023/01/16 02:47:11;;;;;;;15.67;14.23;;;4.10;89.70;;;;;;4992418;28;20217;-89
2023/01/16 02:50:02;;;;;;;15.87;14.47;;;4.00;90.00;;;;;;4993575;28;20241;-89
2023/01/16 02:52:52;;;;;;;19.70;14.53;;;3.90;90.10;;;;;;4993472;28;20636;-89
2023/01/16 02:55:27;;;;;;;17.83;15.90;;;3.80;90.20;;;;;;4993708;28;20171;-89
2023/01/16 02:57:57;;;;;;;17.17;15.43;;;3.90;90.30;;;;;;4992304;28;20183;-90
2023/01/16 03:00:23;;;;;;;17.27;15.67;;;3.80;90.30;;;;;;4993589;28;20197;-90
2023/01/16 03:02:49;;;;;;;16.10;14.60;;;3.80;90.30;;;;;;4993678;28;20225;-90
2023/01/16 03:05:14;;;;;;;17.53;15.83;;;3.80;90.30;;;;;;4993355;28;20249;-90
2023/01/16 03:08:04;;;;;;;17.77;16.17;;;3.70;90.30;;;;;;4993362;28;20180;-90
2023/01/16 03:11:09;;;;;;;17.97;16.27;;;3.70;90.40;;;;;;4993426;28;20185;-90
2023/01/16 03:14:08;;;;;;;17.77;16.27;;;3.70;90.50;;;;;;4980697;28;20221;-89
2023/01/16 03:16:56;;;;;;;18.37;16.90;;;3.70;90.70;;;;;;4993593;28;20512;-90
2023/01/16 03:19:53;;;;;;;18.00;16.40;;;3.70;90.80;;;;;;4993621;28;20249;-90
2023/01/16 03:22:35;;;;;;;16.70;15.23;;;3.70;90.80;;;;;;4993177;28;20548;-90
2023/01/16 03:25:34;;;;;;;17.67;16.20;;;3.70;90.90;;;;;;4993086;28;20212;-91
2023/01/16 03:28:16;;;;;;;19.47;17.40;;;3.70;90.90;;;;;;4996823;28;20164;-89
2023/01/16 03:31:05;;;;;;;17.50;16.03;;;3.70;91.10;;;;;;4997171;28;20172;-90
2023/01/16 03:33:43;;;;;;;17.50;15.43;;;3.70;91.10;;;;;;4995497;28;20283;-89
2023/01/16 03:36:29;;;;;;;18.87;17.03;;;3.70;91.10;;;;;;4996993;28;20701;-90
2023/01/16 03:38:57;;;;;;;17.60;16.30;;;3.70;91.00;;;;;;4995755;28;20628;-90
2023/01/16 03:41:25;;;;;;;18.27;16.37;;;3.70;91.00;;;;;;4996426;28;20216;-90
2023/01/16 03:43:58;;;;;;;18.47;17.03;;;3.70;91.00;;;;;;4996370;28;20219;-90
2023/01/16 03:46:31;;;;;;;19.00;17.20;;;3.60;91.00;;;;;;4996618;28;20557;-90
2023/01/16 03:49:04;;;;;;;19.70;17.90;;;3.50;91.00;;;;;;4996895;28;20188;-90
2023/01/16 03:51:35;;;;;;;18.60;17.20;;;3.60;91.10;;;;;;4995257;28;20277;-90
2023/01/16 03:54:10;;;;;;;19.60;17.70;;;3.60;91.10;;;;;;4996445;28;20198;-90
2023/01/16 03:56:47;;;;;;;18.80;16.90;;;3.70;91.30;;;;;;4996319;28;20162;-90
2023/01/16 03:59:13;;;;;;;18.77;17.17;;;3.70;91.20;;;;;;4996275;28;20621;-89
2023/01/16 04:02:00;;;;;;;18.60;16.87;;;3.70;91.20;;;;;;4996187;28;20185;-91
2023/01/16 04:04:46;;;;;;;19.30;17.73;;;3.70;91.20;;;;;;4996252;28;20194;-89
2023/01/16 04:07:26;;;;;;;19.70;17.67;;;3.70;91.30;;;;;;4994922;28;20681;-90
2023/01/16 04:09:57;;;;;;;19.70;18.07;;;3.70;91.40;;;;;;4996700;28;20236;-90
2023/01/16 04:12:30;;;;;;;20.23;18.53;;;3.80;91.60;;;;;;4994816;28;20193;-90
2023/01/16 04:15:00;;;;;;;20.50;18.40;;;3.90;91.60;;;;;;4996177;28;20529;-90
2023/01/16 04:17:26;;;;;;;18.27;16.83;;;4.00;91.60;;;;;;4995916;28;20181;-90
2023/01/16 04:19:52;;;;;;;18.03;16.43;;;4.00;91.50;;;;;;4994578;28;20182;-90
2023/01/16 04:22:21;;;;;;;18.33;16.70;;;4.10;91.50;;;;;;4995652;28;20189;-89
2023/01/16 04:24:49;;;;;;;17.73;16.00;;;4.20;91.40;;;;;;4995945;28;20212;-89
2023/01/16 04:27:15;;;;;;;17.90;16.40;;;4.30;91.30;;;;;;4995660;28;20169;-90
2023/01/16 04:29:40;;;;;;;18.60;17.00;;;4.20;91.20;;;;;;4996007;28;20185;-90
2023/01/16 04:32:06;;;;;;;17.30;15.83;;;4.30;91.20;;;;;;4995609;28;20230;-90
2023/01/16 04:34:31;;;;;;;18.30;16.60;;;4.30;91.10;;;;;;4995434;28;20309;-89
2023/01/16 04:36:57;;;;;;;17.40;16.07;;;4.30;91.10;;;;;;4995818;28;20249;-90
2023/01/16 04:39:22;;;;;;;19.23;16.27;;;4.30;91.00;;;;;;4995456;28;20200;-90
2023/01/16 04:41:50;;;;;;;16.83;15.60;;;4.30;90.90;;;;;;4995273;28;20710;-90
2023/01/16 04:44:16;;;;;;;16.47;14.83;;;4.30;90.80;;;;;;4995397;28;20288;-89
2023/01/16 04:46:42;;;;;;;16.47;15.03;;;4.30;90.70;;;;;;4995406;28;20180;-89
2023/01/16 04:49:08;;;;;;;16.40;14.80;;;4.30;90.60;;;;;;4995331;28;20180;-90
2023/01/16 04:51:35;;;;;;;17.00;15.30;;;4.40;90.50;;;;;;4995253;28;20261;-89
2023/01/16 04:54:01;;;;;;;16.03;14.47;;;4.40;90.40;;;;;;4994025;28;20198;-90
2023/01/16 04:56:27;;;;;;;16.07;14.67;;;4.40;90.30;;;;;;4995139;28;20553;-90
2023/01/16 04:58:53;;;;;;;15.47;14.03;;;4.40;90.10;;;;;;4993938;28;20200;-89
2023/01/16 05:01:19;;;;;;;14.90;13.70;;;4.50;89.70;;;;;;4993836;28;20217;-90
2023/01/16 05:03:45;;;;;;;15.00;13.43;;;4.50;89.70;;;;;;4993712;28;20259;-90
2023/01/16 05:06:10;;;;;;;14.63;13.50;;;4.50;89.70;;;;;;4993744;28;20213;-89
2023/01/16 05:08:36;;;;;;;14.30;13.17;;;4.50;89.60;;;;;;4994895;28;20173;-90
2023/01/16 05:11:02;;;;;;;14.13;12.93;;;4.50;89.40;;;;;;4994780;28;20212;-89
2023/01/16 05:13:28;;;;;;;13.87;12.60;;;4.50;89.40;;;;;;4994828;28;20197;-89
2023/01/16 05:15:54;;;;;;;15.37;13.13;;;4.60;89.20;;;;;;4994933;28;20195;-89
2023/01/16 05:18:20;;;;;;;13.83;12.83;;;4.60;89.00;;;;;;4994734;28;20181;-89
2023/01/16 05:20:45;;;;;;;13.70;12.60;;;4.60;88.80;;;;;;4994930;28;20189;-89
2023/01/16 05:23:11;;;;;;;12.67;11.57;;;4.60;88.80;;;;;;4994613;28;20224;-89
2023/01/16 05:25:37;;;;;;;12.60;11.33;;;4.60;88.80;;;;;;4994537;28;20259;-90
2023/01/16 05:28:03;;;;;;;13.60;11.80;;;4.60;88.80;;;;;;4994754;28;20181;-90
2023/01/16 05:30:29;;;;;;;13.53;12.17;;;4.60;89.00;;;;;;4993483;28;20670;-89
2023/01/16 05:32:55;;;;;;;14.10;12.87;;;4.60;89.00;;;;;;4993379;28;20210;-89
2023/01/16 05:35:21;;;;;;;13.27;12.07;;;4.50;89.00;;;;;;4994476;28;20185;-89
2023/01/16 05:37:47;;;;;;;14.00;12.33;;;4.60;89.00;;;;;;4994612;28;20188;-90
2023/01/16 05:40:13;;;;;;;13.47;12.37;;;4.60;88.70;;;;;;4994381;28;20181;-89
2023/01/16 05:42:41;;;;;;;13.67;12.27;;;4.60;88.70;;;;;;4994307;28;20175;-89
2023/01/16 05:45:07;;;;;;;13.40;12.20;;;4.60;88.60;;;;;;4994186;28;20216;-89
2023/01/16 05:47:33;;;;;;;14.17;12.93;;;4.60;88.60;;;;;;4993927;28;20210;-89
2023/01/16 05:49:58;;;;;;;13.40;11.87;;;4.60;88.70;;;;;;4994446;28;20649;-90
2023/01/16 05:52:26;;;;;;;14.17;12.93;;;4.50;88.80;;;;;;4994393;28;20177;-89
2023/01/16 05:54:52;;;;;;;14.67;13.57;;;4.50;88.90;;;;;;4993275;28;20178;-89
2023/01/16 05:57:18;;;;;;;14.27;13.00;;;4.50;88.90;;;;;;4992944;28;20274;-89
2023/01/16 05:59:46;;;;;;;13.93;12.73;;;4.50;88.80;;;;;;4992836;28;20193;-90
2023/01/16 06:02:12;;;;;;;13.77;12.60;;;4.50;88.80;;;;;;4994312;28;20181;-89
2023/01/16 06:04:38;;;;;;;14.23;13.10;;;4.50;89.00;;;;;;4993878;28;20331;-89
2023/01/16 06:07:03;;;;;;;14.27;13.17;;;4.40;89.00;;;;;;4994291;28;20185;-89
2023/01/16 06:09:29;;;;;;;14.93;13.33;;;4.30;89.10;;;;;;4994242;28;20174;-89
2023/01/16 06:11:54;;;;;;;14.87;13.57;;;4.30;89.10;;;;;;4993949;28;20178;-90
2023/01/16 06:14:20;;;;;;;14.23;12.83;;;4.20;89.20;;;;;;4994219;28;20197;-90
2023/01/16 06:16:45;;;;;;;15.43;14.10;;;4.20;89.40;;;;;;4993825;28;20647;-90
2023/01/16 06:19:11;;;;;;;16.47;14.83;;;4.20;89.40;;;;;;4993835;28;20233;-89
2023/01/16 06:21:36;;;;;;;16.23;14.30;;;4.20;89.50;;;;;;4993836;28;20164;-89
2023/01/16 06:24:02;;;;;;;17.07;15.40;;;4.30;89.50;;;;;;4994088;28;20289;-89
2023/01/16 06:26:27;;;;;;;16.23;14.83;;;4.20;89.40;;;;;;4993806;28;20200;-90
2023/01/16 06:28:55;;;;;;;16.03;14.83;;;4.20;89.50;;;;;;4993994;28;20176;-90
2023/01/16 06:31:21;;;;;;;15.57;14.17;;;4.20;89.50;;;;;;4994127;28;20192;-89
2023/01/16 06:33:47;;;;;;;15.13;14.03;;;4.20;89.50;;;;;;4993618;28;20731;-90
2023/01/16 06:36:12;;;;;;;16.20;14.70;;;4.20;89.50;;;;;;4993734;28;20177;-90
2023/01/16 06:38:38;;;;;;;15.83;14.40;;;4.20;89.60;;;;;;4993734;28;20193;-90
2023/01/16 06:41:04;;;;;;;15.70;14.50;;;4.20;89.50;;;;;;4993901;28;20193;-89
2023/01/16 06:43:29;;;;;;;15.30;13.70;;;4.20;89.60;;;;;;4993629;28;20205;-90
2023/01/16 06:45:55;;;;;;;15.20;13.87;;;4.20;89.60;;;;;;4993439;28;20211;-90
2023/01/16 06:48:20;;;;;;;14.00;13.10;;;4.20;89.60;;;;;;4993954;28;20227;-90
2023/01/16 06:50:47;;;;;;;16.03;14.43;;;4.20;89.50;;;;;;4993582;28;20176;-90
2023/01/16 06:53:13;;;;;;;14.53;13.23;;;4.20;89.60;;;;;;4993690;28;20235;-89
2023/01/16 06:55:40;;;;;;;15.03;13.83;;;4.20;89.50;;;;;;4993561;28;20178;-90
2023/01/16 06:58:06;;;;;;;14.37;13.03;;;4.30;89.50;;;;;;4993794;28;20309;-90
2023/01/16 07:00:33;;;;;;;15.70;14.50;;;4.30;89.40;;;;;;4995305;28;20211;-90
2023/01/16 07:02:59;;;;;;;13.70;12.50;;;4.30;89.50;;;;;;4997283;28;20189;-90
2023/01/16 07:05:26;;;;;;;14.90;13.40;;;4.30;89.40;;;;;;4995907;28;20610;-89
2023/01/16 07:07:52;;;;;;;14.80;13.60;;;4.30;89.50;;;;;;4995978;28;20180;-90
2023/01/16 07:10:21;;;;;;;14.83;13.63;;;4.30;89.40;;;;;;4997157;28;20176;-90
2023/01/16 07:12:47;;;;;;;14.83;13.73;;;4.20;89.40;;;;;;4997007;28;20211;-90
2023/01/16 07:23:34;;;;;;;14.87;13.63;;;4.20;89.50;;;;;;4996905;28;20220;-90
2023/01/16 07:26:04;;;;;;;15.63;14.47;;;4.30;89.50;;;;;;4996819;28;20236;-90
2023/01/16 07:28:30;;;;;;;14.97;13.90;;;4.20;89.40;;;;;;4995569;28;20181;-90
2023/01/16 07:30:57;;;;;;;15.97;14.57;;;4.20;89.40;;;;;;4995708;28;20178;-89
2023/01/16 07:33:22;;;;;;;15.43;13.90;;;4.20;89.30;;;;;;4995782;28;20196;-89
2023/01/16 07:35:48;;;;;;;16.90;14.90;;;4.20;89.30;;;;;;4995441;28;20185;-90
2023/01/16 07:38:14;;;;;;;14.70;13.30;;;4.20;89.40;;;;;;4996727;28;20558;-89
2023/01/16 07:40:40;;;;;;;14.00;12.60;;;4.30;89.40;;;;;;4996267;28;20239;-90
2023/01/16 07:43:05;;;;;;;13.67;12.33;;;4.30;89.40;;;;;;4996919;28;20280;-89
2023/01/16 07:45:31;;;;;;;14.43;13.33;;;4.30;89.50;;;;;;4996432;28;20713;-90
2023/01/16 07:47:56;;;;;;;14.50;13.40;;;4.30;89.50;;;;;;4996495;28;20665;-90
2023/01/16 07:50:22;;;;;;;15.30;13.90;;;4.30;89.50;;;;;;4996419;28;20714;-89
2023/01/16 07:52:47;;;;;;;13.87;12.77;;;4.30;89.40;;;;;;4995382;28;20207;-88
2023/01/16 07:55:13;;;;;;;13.90;12.80;;;4.30;89.30;;;;;;4996543;28;20640;-88
2023/01/16 07:57:39;;;;;;;14.53;13.33;;;4.30;89.20;;;;;;4996314;28;20176;-89
2023/01/16 08:00:06;;;;;;;15.47;13.63;;;4.40;89.20;;;;;;4996425;28;20638;-89
2023/01/16 08:02:32;;;;;;;14.97;13.70;;;4.40;89.10;;;;;;4995670;28;20308;-89
2023/01/16 08:04:57;;;;;;;14.10;13.03;;;4.40;89.00;;;;;;4996284;28;20287;-90
2023/01/16 08:07:23;;;;;;;13.50;12.30;;;4.40;88.90;;;;;;4996093;28;20188;-89
2023/01/16 08:09:48;;;;;;;13.70;12.60;;;4.40;88.70;;;;;;4996221;28;20194;-89
2023/01/16 08:12:14;;;;;;;13.83;12.73;;;4.40;88.60;;;;;;4996317;28;20177;-89
2023/01/16 08:14:40;;;;;;;14.23;12.87;;;4.50;88.60;;;;;;4995903;28;20206;-89
2023/01/16 08:17:05;;;;;;;14.10;13.07;;;4.50;88.60;;;;;;4996000;28;20180;-89
2023/01/16 08:19:31;;;;;;;13.90;12.90;;;4.50;88.80;;;;;;4995996;28;20173;-88
2023/01/16 08:21:57;;;;;;;14.57;13.10;;;4.50;88.80;;;;;;4994612;28;20184;-89
2023/01/16 08:24:25;;;;;;;14.30;13.30;;;4.40;88.70;;;;;;4995919;28;20226;-89
2023/01/16 08:26:51;;;;;;;17.27;12.80;;;4.50;88.80;;;;;;4995787;28;20166;-89
2023/01/16 08:29:16;;;;;;;14.47;13.47;;;4.40;88.80;;;;;;4995830;28;20201;-89
2023/01/16 08:31:42;;;;;;;14.97;13.77;;;4.40;88.90;;;;;;4995611;28;20643;-89
2023/01/16 08:34:08;;;;;;;15.10;13.83;;;4.40;88.90;;;;;;4995768;28;20660;-89
2023/01/16 08:36:33;;;;;;;14.67;13.67;;;4.40;88.80;;;;;;4994889;28;20197;-90
2023/01/16 08:38:59;;;;;;;15.70;14.37;;;4.40;88.70;;;;;;4994898;28;20181;-89
2023/01/16 08:52:38;;;;;;;15.30;13.73;;;4.50;88.60;;;;;;4995533;28;20245;-89
2023/01/16 08:55:05;;;;;;;14.40;13.30;;;4.50;88.80;;;;;;4995189;28;20177;-89
2023/01/16 08:57:30;;;;;;;14.63;13.47;;;4.50;88.70;;;;;;4995453;28;20174;-89
2023/01/16 08:59:56;;;;;;;14.23;13.23;;;4.50;88.60;;;;;;4993995;28;20188;-90
2023/01/16 09:02:24;;;;;;;13.50;12.50;;;4.50;88.60;;;;;;4995429;28;20181;-89
2023/01/16 09:04:49;;;;;;;14.33;13.03;;;4.50;88.70;;;;;;4994963;28;20199;-89
2023/01/16 09:07:16;;;;;;;13.77;12.63;;;4.50;88.50;;;;;;4995291;28;20219;-89
2023/01/16 09:09:42;;;;;;;14.07;12.70;;;4.60;88.60;;;;;;4995023;28;20170;-90
2023/01/16 09:14:55;;;;;;;15.00;13.57;;;4.50;88.30;;;;;;4995208;28;20674;-90
2023/01/16 09:17:21;;;;;;;14.43;13.40;;;4.50;88.10;;;;;;4995659;28;20174;-90
2023/01/16 09:19:47;;;;;;;13.87;12.87;;;4.40;88.00;;;;;;4994791;28;20181;-88
2023/01/16 09:22:12;;;;;;;14.07;12.77;;;4.50;88.10;;;;;;4993808;28;20659;-89
2023/01/16 09:24:39;;;;;;;14.80;13.60;;;4.50;88.00;;;;;;4993813;28;20217;-91
2023/01/16 09:27:04;;;;;;;14.40;13.00;;;4.50;88.00;;;;;;4993760;28;20205;-91
2023/01/16 09:29:30;;;;;;;14.37;13.37;;;4.60;87.80;;;;;;4993339;28;20173;-91
2023/01/16 09:31:56;;;;;;;14.17;13.17;;;4.50;87.70;;;;;;4994212;28;20177;-90
2023/01/16 09:34:22;;;;;;;13.87;12.77;;;4.50;87.70;;;;;;4993237;28;20208;-91
2023/01/16 09:36:47;;;;;;;14.50;13.33;;;4.50;87.80;;;;;;4993745;28;20227;-91
2023/01/16 09:39:13;;;;;;;14.20;12.93;;;4.50;87.80;;;;;;4993584;28;20635;-91
2023/01/16 09:45:00;;;;;;;14.83;13.73;;;4.50;87.80;;;;;;4994618;28;20199;-91
2023/01/16 09:47:27;;;;;;;15.37;14.27;;;4.50;88.00;;;;;;4994115;28;20174;-89
2023/01/16 09:50:10;;;;;;;14.43;13.33;;;4.50;87.90;;;;;;4994579;28;20170;-91
2023/01/16 09:58:35;;;;;;;14.77;13.67;;;4.70;87.80;;;;;;4994842;28;20712;-91
2023/01/16 10:01:09;;;;;;;15.67;14.07;;;4.70;87.80;;;;;;4992886;28;20166;-91
2023/01/16 10:03:41;;;;;;;13.70;12.63;;;4.70;87.70;;;;;;4992739;28;20201;-90
2023/01/16 10:06:20;;;;;;;14.10;12.90;;;4.70;87.80;;;;;;4992902;28;20288;-91
2023/01/16 10:08:45;;;;;;;13.00;12.03;;;4.80;87.90;;;;;;4993049;28;20174;-90
2023/01/16 10:11:37;;;;;;;14.10;13.10;;;4.80;87.70;;;;;;4992824;28;20180;-91
2023/01/16 10:14:27;;;;;;;14.37;13.27;;;4.90;87.80;;;;;;4994264;28;20186;-91
2023/01/16 10:17:21;;;;;;;14.67;13.70;;;4.90;87.60;;;;;;4993395;28;20172;-91
2023/01/16 10:20:04;;;;;;;14.23;13.23;;;5.00;87.40;;;;;;4918404;29;20186;-91
2023/01/16 10:22:43;;;;;;;13.50;12.50;;;5.00;87.10;;;;;;5008672;28;20273;-91
2023/01/16 10:25:17;;;;;;;12.63;11.93;;;5.10;86.90;;;;;;4992658;28;20194;-91
2023/01/16 10:27:46;;;;;;;13.70;12.80;;;5.20;87.00;;;;;;4992933;28;20173;-88
2023/01/16 10:30:19;;;;;;;13.27;12.37;;;5.20;86.80;;;;;;4993665;28;20174;-88
2023/01/16 10:32:52;;;;;;;13.17;12.37;;;5.30;86.70;;;;;;4993958;28;20154;-88
2023/01/16 10:35:23;;;;;;;14.00;12.83;;;5.40;86.40;;;;;;4995665;28;20184;-89
2023/01/16 10:37:50;;;;;;;13.43;12.47;;;5.40;86.60;;;;;;4996596;28;20177;-90
2023/01/16 10:40:20;;;;;;;13.53;12.53;;;5.40;86.50;;;;;;4996643;28;20280;-89
2023/01/16 10:51:11;;;;;;;18.37;16.07;;;5.40;85.60;;;;;;4998643;28;20213;-89
2023/01/16 10:53:38;;;;;;;21.70;16.17;;;5.50;85.90;;;;;;4997695;28;20193;-89
2023/01/16 10:56:04;;;;;;;16.37;15.07;;;5.40;85.70;;;;;;4997494;28;20185;-90
2023/01/16 10:58:35;;;;;;;16.43;15.03;;;5.40;85.60;;;;;;4997419;28;20170;-90
2023/01/16 11:01:16;;;;;;;15.00;13.80;;;5.50;85.70;;;;;;4996197;28;20220;-90
2023/01/16 11:03:50;;;;;;;14.90;13.73;;;5.60;85.80;;;;;;4996054;28;20239;-90
2023/01/16 11:06:25;;;;;;;15.57;14.20;;;5.70;85.60;;;;;;4995982;28;20197;-90
2023/01/16 11:09:06;;;;;;;13.67;12.57;;;5.60;84.80;;;;;;4995939;28;20177;-90
2023/01/16 11:20:27;;;;;;;14.63;13.37;;;5.50;84.70;;;;;;4998831;28;20700;-90
2023/01/16 11:23:20;;;;;;;14.60;13.53;;;5.50;84.80;;;;;;4996205;28;20212;-90
2023/01/16 11:25:48;;;;;;;14.43;13.10;;;5.40;84.70;;;;;;4997167;28;20182;-90
2023/01/16 11:28:22;;;;;;;13.27;12.33;;;5.40;84.90;;;;;;4996760;28;20174;-91
2023/01/16 11:30:51;;;;;;;14.10;12.80;;;5.50;84.90;;;;;;4996127;28;20261;-91
2023/01/16 11:33:22;;;;;;;12.87;12.00;;;5.60;84.70;;;;;;4995622;28;20248;-92
2023/01/16 11:35:53;;;;;;;13.33;12.20;;;5.50;84.30;;;;;;4995668;28;20265;-89
2023/01/16 11:38:20;;;;;;;13.57;12.53;;;5.50;84.60;;;;;;4995489;28;20171;-90
2023/01/16 11:40:47;;;;;;;12.80;11.90;;;5.60;84.60;;;;;;4995369;28;20600;-91
2023/01/16 11:46:12;;;;;;;13.23;12.30;;;5.60;84.10;;;;;;4995625;28;20270;-90
2023/01/16 11:48:44;;;;;;;12.70;11.60;;;5.60;84.40;;;;;;4996002;28;20162;-90
2023/01/16 11:51:16;;;;;;;12.60;11.30;;;5.60;84.70;;;;;;4995600;28;20177;-89
2023/01/16 11:53:45;;;;;;;13.33;12.17;;;5.60;84.70;;;;;;4995136;28;20194;-88
2023/01/16 11:56:41;;;;;;;13.73;12.63;;;5.70;84.50;;;;;;4996340;28;20205;-89
2023/01/16 11:59:39;;;;;;;12.80;12.03;;;5.70;84.40;;;;;;4995220;28;20333;-88
2023/01/16 12:02:32;;;;;;;13.00;11.97;;;5.80;84.70;;;;;;4997116;28;20221;-89
2023/01/16 12:08:27;;;;;;;11.53;10.80;;;5.80;84.60;;;;;;4998641;28;20217;-91
2023/01/16 12:11:08;;;;;;;12.60;11.57;;;5.80;84.40;;;;;;4994944;28;20742;-90
2023/01/16 12:14:17;;;;;;;10.83;9.80;;;5.80;84.40;;;;;;4995569;28;20224;-90
2023/01/16 12:17:08;;;;;;;12.30;10.27;;;5.80;84.40;;;;;;4995162;28;20268;-89
2023/01/16 12:19:52;;;;;;;11.43;10.60;;;5.80;84.30;;;;;;4994770;28;20178;-90
2023/01/16 12:22:45;;;;;;;11.50;10.70;;;5.80;84.30;;;;;;4994513;28;20236;-90
2023/01/16 12:25:44;;;;;;;11.77;10.87;;;5.80;84.30;;;;;;4994513;28;20648;-90
2023/01/16 12:28:21;;;;;;;12.63;11.00;;;5.80;84.10;;;;;;4994534;28;20178;-90
2023/01/16 12:34:06;;;;;;;12.17;11.17;;;5.80;83.90;;;;;;4995902;28;20256;-90
2023/01/16 12:36:43;;;;;;;12.67;11.53;;;5.90;83.80;;;;;;4994510;28;20189;-89
2023/01/16 12:39:18;;;;;;;12.67;11.67;;;5.80;83.70;;;;;;4994427;28;20180;-89
2023/01/16 12:45:05;;;;;;;13.67;12.37;;;5.90;83.30;;;;;;4995375;28;20333;-91
2023/01/16 12:47:46;;;;;;;12.47;11.57;;;5.90;83.10;;;;;;4994138;28;20289;-90
2023/01/16 12:50:39;;;;;;;13.60;12.47;;;5.90;83.00;;;;;;4994601;28;20628;-90
2023/01/16 12:53:33;;;;;;;13.40;12.30;;;5.90;83.10;;;;;;4994031;28;20202;-90
2023/01/16 12:56:22;;;;;;;13.73;12.40;;;5.80;83.10;;;;;;4994245;28;20233;-90
2023/01/16 12:58:57;;;;;;;13.20;12.07;;;5.90;83.10;;;;;;4995178;28;20676;-91
2023/01/16 13:01:27;;;;;;;12.83;11.83;;;5.90;83.20;;;;;;4994804;28;20177;-87
2023/01/16 13:04:05;;;;;;;12.50;11.40;;;5.90;83.40;;;;;;4996588;28;20241;-91
2023/01/16 13:06:52;;;;;;;14.00;11.47;;;5.80;83.20;;;;;;4994581;28;20198;-90
2023/01/16 13:09:40;;;;;;;12.53;11.73;;;5.90;83.30;;;;;;4994724;28;20170;-91
2023/01/16 13:15:09;;;;;;;12.73;11.70;;;5.90;83.30;;;;;;4995083;28;20756;-91
2023/01/16 13:17:59;;;;;;;11.63;10.93;;;5.80;83.30;;;;;;4993807;28;20227;-91
2023/01/16 13:20:25;;;;;;;12.30;11.50;;;5.90;83.00;;;;;;4993604;28;20221;-91
2023/01/16 13:22:55;;;;;;;12.33;11.60;;;5.90;82.70;;;;;;4993485;28;20695;-90
2023/01/16 13:25:28;;;;;;;13.07;12.00;;;5.90;82.80;;;;;;4993614;28;20668;-91
2023/01/16 13:28:01;;;;;;;16.27;12.27;;;6.00;82.50;;;;;;4994423;28;20189;-91
2023/01/16 13:30:26;;;;;;;12.43;11.50;;;6.00;82.60;;;;;;4993640;28;20229;-91
2023/01/16 13:33:20;;;;;;;14.43;13.10;;;6.00;81.90;;;;;;4993275;28;20198;-90
2023/01/16 13:36:00;;;;;;;13.47;12.57;;;5.90;81.60;;;;;;4992845;28;20189;-91
2023/01/16 13:38:56;;;;;;;12.37;11.57;;;5.90;81.80;;;;;;4994229;28;20182;-91
2023/01/16 13:41:38;;;;;;;13.77;12.73;;;5.90;82.00;;;;;;4994141;28;20182;-91
2023/01/16 13:47:05;;;;;;;14.83;13.67;;;5.90;82.80;;;;;;4994672;28;20189;-91
2023/01/16 13:49:31;;;;;;;12.40;11.70;;;5.80;83.30;;;;;;4993309;28;20255;-91
2023/01/16 13:52:00;;;;;;;12.60;11.80;;;5.80;83.40;;;;;;4993205;28;20233;-91
2023/01/16 13:54:47;;;;;;;13.20;12.20;;;5.80;83.40;;;;;;4992807;28;20202;-91
2023/01/16 13:57:23;;;;;;;14.03;12.80;;;5.80;82.50;;;;;;4992942;28;20237;-91
2023/01/16 14:00:00;;;;;;;12.40;11.70;;;5.80;82.70;;;;;;4993015;28;20178;-91
2023/01/16 14:02:35;;;;;;;13.03;12.10;;;5.80;83.30;;;;;;4992984;28;20281;-91
2023/01/16 14:05:07;;;;;;;13.37;12.37;;;5.80;83.30;;;;;;4993779;28;20201;-91
2023/01/16 14:10:55;;;;;;;12.10;11.10;;;5.80;83.60;;;;;;4994562;28;20200;-92